Time;durP1;ratioP1;P1;durP2;ratioP2;P2;SDS_P1;SDS_P2;PMS_P1;PMS_P2;Temp;Humidity;BMP_temperature;BMP_pressure;BME280_temperature;BME280_humidity;BME280_pressure;Samples;Min_cycle;Max_cycle;Signal;HPM_P1;HPM_P2
2021/12/09 00:02:16;;;;;;;;;;;;;;;-3.90;74.59;98367.73;103249;1317;111519;-77
2021/12/09 00:04:48;;;;;;;41.20;19.90;;;;;;;-3.88;74.70;98367.70;103272;1316;96726;-75
2021/12/09 00:07:16;;;;;;;43.90;20.00;;;;;;;-3.84;74.58;98367.94;103412;1314;107914;-76
2021/12/09 00:09:44;;;;;;;43.10;20.80;;;;;;;-3.82;74.59;98362.52;103281;1313;98046;-76
2021/12/09 00:12:12;;;;;;;40.20;18.70;;;;;;;-3.79;74.77;98361.91;103293;1313;97894;-76
2021/12/09 00:14:42;;;;;;;44.20;19.70;;;;;;;-3.78;74.70;98359.11;103271;1313;111141;-76
2021/12/09 00:17:10;;;;;;;38.20;17.10;;;;;;;-3.76;74.67;98358.02;103314;1314;97898;-76
2021/12/09 00:19:41;;;;;;;41.90;18.70;;;;;;;-3.79;74.46;98360.02;103302;1314;107379;-77
2021/12/09 00:22:12;;;;;;;42.50;20.60;;;;;;;-3.83;74.56;98363.75;103100;1314;97886;-76
2021/12/09 00:24:43;;;;;;;45.10;20.50;;;;;;;-3.83;74.59;98364.60;103165;1314;98058;-78
2021/12/09 00:27:14;;;;;;;43.30;20.20;;;;;;;-3.82;74.86;98368.04;103358;1313;111042;-78
2021/12/09 00:29:42;;;;;;;44.00;20.80;;;;;;;-3.80;74.86;98370.07;103314;1314;97831;-77
2021/12/09 00:32:10;;;;;;;44.90;21.90;;;;;;;-3.77;74.63;98369.67;103286;1318;107825;-75
2021/12/09 00:34:41;;;;;;;39.30;19.70;;;;;;;-3.75;74.72;98369.42;103270;1313;96524;-77
2021/12/09 00:37:18;;;;;;;42.30;20.00;;;;;;;-3.73;74.73;98368.88;103288;1317;95259;-78
2021/12/09 00:39:49;;;;;;;43.90;19.70;;;;;;;-3.73;74.68;98370.77;103374;1313;111402;-76
2021/12/09 00:42:21;;;;;;;42.30;19.20;;;;;;;-3.72;74.79;98372.85;103310;1316;97912;-78
2021/12/09 00:44:52;;;;;;;37.60;17.30;;;;;;;-3.77;74.56;98375.88;103274;1313;108104;-78
2021/12/09 00:47:22;;;;;;;38.30;19.40;;;;;;;-3.84;74.66;98375.56;103394;1313;97970;-75
2021/12/09 00:49:55;;;;;;;40.70;19.00;;;;;;;-3.90;74.60;98380.73;103346;1313;97956;-75
2021/12/09 00:52:25;;;;;;;37.80;16.60;;;;;;;-3.92;74.60;98377.49;103403;1313;111467;-76
2021/12/09 00:54:55;;;;;;;37.70;15.80;;;;;;;-3.96;74.48;98377.77;103337;1311;97652;-75
2021/12/09 00:57:27;;;;;;;37.40;17.30;;;;;;;-4.06;74.45;98374.01;103366;1317;107817;-76
2021/12/09 00:59:55;;;;;;;40.40;18.20;;;;;;;-4.11;74.46;98371.02;103408;1313;97952;-75
2021/12/09 01:02:23;;;;;;;47.10;21.70;;;;;;;-4.12;74.45;98375.20;103378;1314;97963;-75
2021/12/09 01:04:53;;;;;;;42.20;20.30;;;;;;;-4.09;74.69;98371.67;103390;1317;111503;-76
2021/12/09 01:07:21;;;;;;;40.00;20.00;;;;;;;-4.05;74.74;98370.69;103342;1316;96639;-75
2021/12/09 01:09:48;;;;;;;41.60;18.30;;;;;;;-4.02;74.76;98370.46;103327;1313;107777;-75
2021/12/09 01:12:16;;;;;;;41.10;18.40;;;;;;;-4.00;74.69;98364.70;103329;1314;97191;-75
2021/12/09 01:14:44;;;;;;;41.40;19.10;;;;;;;-3.99;74.52;98365.02;103404;1314;97817;-74
2021/12/09 01:17:14;;;;;;;40.20;18.30;;;;;;;-3.98;74.56;98364.30;103442;1313;111636;-77
2021/12/09 01:19:44;;;;;;;41.40;19.50;;;;;;;-3.97;74.69;98364.10;103343;1313;98673;-77
2021/12/09 01:22:12;;;;;;;46.50;19.50;;;;;;;-3.95;74.75;98361.44;103374;1319;109357;-77
2021/12/09 01:24:40;;;;;;;39.40;17.60;;;;;;;-3.93;74.72;98355.85;103311;1313;95253;-76
2021/12/09 01:27:08;;;;;;;40.70;18.10;;;;;;;-4.00;74.69;98353.42;103310;1317;97974;-76
2021/12/09 01:29:41;;;;;;;43.70;20.00;;;;;;;-4.06;74.60;98350.27;103303;1317;111322;-76
2021/12/09 01:32:13;;;;;;;41.70;19.50;;;;;;;-4.05;74.79;98355.96;103345;1317;97849;-77
2021/12/09 01:34:42;;;;;;;37.60;18.90;;;;;;;-4.04;74.73;98355.59;103398;1313;107680;-77
2021/12/09 01:37:10;;;;;;;40.30;19.20;;;;;;;-4.02;74.66;98355.58;103353;1317;97979;-77
2021/12/09 01:39:38;;;;;;;44.40;21.10;;;;;;;-4.02;74.57;98352.95;103384;1314;97946;-79
2021/12/09 01:42:08;;;;;;;40.90;19.60;;;;;;;-4.00;74.78;98351.88;103457;1314;112736;-78
2021/12/09 01:44:36;;;;;;;40.40;19.10;;;;;;;-3.98;74.85;98353.55;103478;1313;97998;-76
2021/12/09 01:47:04;;;;;;;42.00;19.40;;;;;;;-3.97;74.73;98350.58;103442;1319;108771;-76
2021/12/09 01:49:35;;;;;;;42.60;19.60;;;;;;;-3.95;74.85;98348.46;103417;1319;98000;-76
2021/12/09 01:52:06;;;;;;;41.10;18.90;;;;;;;-3.95;74.68;98346.89;103429;1314;96639;-77
2021/12/09 01:54:34;;;;;;;39.00;19.40;;;;;;;-3.95;74.52;98344.13;103363;1314;111533;-77
2021/12/09 01:57:08;;;;;;;39.80;18.40;;;;;;;-3.95;74.90;98339.80;103323;1319;97885;-76
2021/12/09 01:59:35;;;;;;;37.60;17.30;;;;;;;-3.95;74.62;98338.57;103430;1314;107588;-76
2021/12/09 02:02:05;;;;;;;39.10;18.20;;;;;;;-3.95;74.70;98337.19;103463;1313;97937;-75
2021/12/09 02:04:33;;;;;;;37.50;18.40;;;;;;;-3.94;74.69;98342.36;103429;1313;97896;-75
2021/12/09 02:07:03;;;;;;;37.40;16.40;;;;;;;-3.95;74.61;98343.44;103444;1317;111437;-75
2021/12/09 02:09:32;;;;;;;36.10;16.80;;;;;;;-4.06;74.50;98344.92;103041;1320;97894;-76
2021/12/09 02:12:00;;;;;;;38.30;17.10;;;;;;;-4.12;74.60;98338.50;103345;1314;109465;-75
2021/12/09 02:14:30;;;;;;;36.70;18.10;;;;;;;-4.11;74.60;98335.35;103397;1313;97968;-74
2021/12/09 02:17:00;;;;;;;36.70;17.20;;;;;;;-4.12;74.80;98332.25;103256;1319;98361;-75
2021/12/09 02:19:28;;;;;;;36.50;17.60;;;;;;;-4.11;74.78;98325.49;103094;1319;113772;-75
2021/12/09 02:22:01;;;;;;;33.50;16.00;;;;;;;-4.12;74.62;98328.80;103458;1314;97933;-73
2021/12/09 02:24:32;;;;;;;40.20;18.00;;;;;;;-4.12;74.67;98324.29;103172;1316;107630;-75
2021/12/09 02:26:59;;;;;;;40.40;17.10;;;;;;;-4.10;74.65;98324.77;103362;1317;98005;-75
2021/12/09 02:29:27;;;;;;;41.10;19.20;;;;;;;-4.09;74.68;98326.47;103365;1313;97746;-75
2021/12/09 02:31:57;;;;;;;38.40;17.80;;;;;;;-4.09;74.80;98326.48;103406;1313;111660;-75
2021/12/09 02:34:29;;;;;;;37.40;17.60;;;;;;;-4.07;74.77;98329.38;103422;1319;95193;-76
2021/12/09 02:36:58;;;;;;;40.20;17.90;;;;;;;-4.06;74.72;98327.76;103394;1314;107095;-75
2021/12/09 02:39:25;;;;;;;38.90;17.40;;;;;;;-4.03;74.75;98329.10;103374;1313;97988;-76
2021/12/09 02:41:53;;;;;;;40.60;17.90;;;;;;;-4.01;74.75;98331.98;103428;1314;97956;-79
2021/12/09 02:44:23;;;;;;;36.90;16.70;;;;;;;-4.02;74.92;98336.15;103446;1317;109752;-76
2021/12/09 02:46:55;;;;;;;35.80;16.10;;;;;;;-4.04;74.75;98333.41;103301;1317;182075;-75
2021/12/09 02:49:29;;;;;;;40.70;18.20;;;;;;;-4.05;74.59;98328.09;103390;1319;107844;-76
2021/12/09 02:52:00;;;;;;;33.30;13.80;;;;;;;-4.06;74.61;98324.65;103401;1317;97994;-76
2021/12/09 02:54:30;;;;;;;33.90;15.30;;;;;;;-4.10;74.57;98326.84;103436;1313;96154;-75
2021/12/09 02:57:04;;;;;;;37.80;16.90;;;;;;;-4.18;74.50;98338.64;103308;1317;111501;-77
2021/12/09 02:59:34;;;;;;;37.60;18.40;;;;;;;-4.24;74.52;98340.35;103338;1314;97903;-77
2021/12/09 03:02:08;;;;;;;36.90;17.60;;;;;;;-4.28;74.59;98335.41;103392;1319;107892;-76
2021/12/09 03:05:01;;;;;;;37.80;17.60;;;;;;;-4.31;74.59;98333.08;103403;1317;97955;-75
2021/12/09 03:07:37;;;;;;;39.40;16.70;;;;;;;-4.35;74.53;98333.34;103366;1313;97992;-76
2021/12/09 03:10:25;;;;;;;39.70;18.10;;;;;;;-4.41;74.61;98340.55;103311;1319;110574;-75
2021/12/09 03:12:59;;;;;;;35.10;15.00;;;;;;;-4.51;74.60;98347.73;103453;1314;97991;-77
2021/12/09 03:15:34;;;;;;;35.30;15.50;;;;;;;-4.57;74.62;98357.73;103379;1313;107903;-75
2021/12/09 03:18:04;;;;;;;39.80;17.10;;;;;;;-4.66;74.50;98369.16;103373;1320;97937;-75
2021/12/09 03:20:32;;;;;;;36.50;16.00;;;;;;;-4.68;74.63;98373.70;103345;1317;97955;-75
2021/12/09 03:23:02;;;;;;;39.20;17.00;;;;;;;-4.70;74.61;98379.80;103328;1313;109883;-74
2021/12/09 03:25:30;;;;;;;40.00;17.60;;;;;;;-4.75;74.78;98381.30;103452;1313;98601;-76
2021/12/09 03:27:58;;;;;;;39.80;17.10;;;;;;;-4.78;74.69;98389.31;103348;1314;107857;-74
2021/12/09 03:30:25;;;;;;;37.80;19.20;;;;;;;-4.77;74.77;98388.98;103347;1314;97985;-75
2021/12/09 03:32:55;;;;;;;37.40;16.30;;;;;;;-4.74;74.86;98385.43;103442;1314;98001;-75
2021/12/09 03:35:24;;;;;;;40.30;19.10;;;;;;;-4.68;74.90;98382.52;103336;1313;111504;-75
2021/12/09 03:37:52;;;;;;;39.50;17.50;;;;;;;-4.63;74.91;98378.97;103328;1314;97904;-75
2021/12/09 03:40:22;;;;;;;40.30;17.90;;;;;;;-4.57;74.91;98376.77;103428;1313;107887;-76
2021/12/09 03:42:50;;;;;;;40.70;18.50;;;;;;;-4.52;74.85;98382.02;103354;1313;97882;-76
2021/12/09 03:45:18;;;;;;;41.30;19.30;;;;;;;-4.48;74.93;98382.27;103385;1313;97997;-76
2021/12/09 03:47:47;;;;;;;39.10;18.20;;;;;;;-4.43;74.94;98372.45;103352;1319;111472;-76
2021/12/09 03:50:17;;;;;;;38.70;18.20;;;;;;;-4.40;75.14;98368.22;103431;1314;95158;-77
2021/12/09 03:52:45;;;;;;;35.30;15.40;;;;;;;-4.36;74.98;98364.86;103434;1313;107775;-76
2021/12/09 03:55:15;;;;;;;33.30;15.80;;;;;;;-4.37;74.87;98365.73;103161;1314;98582;-77
2021/12/09 03:57:44;;;;;;;34.80;14.00;;;;;;;-4.41;74.80;98368.98;103429;1319;95203;-75
2021/12/09 04:00:15;;;;;;;33.10;15.30;;;;;;;-4.51;74.80;98374.04;103398;1313;111490;-75
2021/12/09 04:02:43;;;;;;;34.80;16.20;;;;;;;-4.56;74.76;98375.02;103422;1319;95261;-77
2021/12/09 04:05:13;;;;;;;37.10;15.80;;;;;;;-4.61;74.83;98370.45;103309;1314;107823;-75
2021/12/09 04:07:41;;;;;;;36.90;15.60;;;;;;;-4.66;74.89;98366.90;103355;1317;97870;-76
2021/12/09 04:10:09;;;;;;;36.50;17.00;;;;;;;-4.66;74.93;98374.35;103336;1314;98023;-76
2021/12/09 04:12:37;;;;;;;42.70;18.30;;;;;;;-4.66;74.99;98367.94;103303;1313;111390;-76
2021/12/09 04:15:08;;;;;;;40.80;19.10;;;;;;;-4.62;75.06;98367.02;103363;1319;97995;-75
2021/12/09 04:17:37;;;;;;;39.00;18.80;;;;;;;-4.56;75.19;98367.23;103311;1317;106813;-76
2021/12/09 04:20:09;;;;;;;40.60;17.80;;;;;;;-4.51;75.12;98364.16;103309;1314;98045;-78
2021/12/09 04:22:37;;;;;;;41.70;18.30;;;;;;;-4.47;75.10;98356.10;103345;1313;97890;-77
2021/12/09 04:25:07;;;;;;;42.50;19.90;;;;;;;-4.41;75.10;98354.59;103323;1313;112506;-76
2021/12/09 04:27:35;;;;;;;45.40;21.00;;;;;;;-4.38;75.16;98352.80;103186;1316;98036;-75
2021/12/09 04:30:04;;;;;;;37.90;17.60;;;;;;;-4.36;75.07;98344.44;103434;1313;107905;-76
2021/12/09 04:32:33;;;;;;;36.50;17.00;;;;;;;-4.37;75.02;98344.96;103445;1317;97977;-75
2021/12/09 04:35:01;;;;;;;35.90;16.20;;;;;;;-4.43;74.87;98342.34;103460;1313;98492;-77
2021/12/09 04:37:29;;;;;;;40.70;18.50;;;;;;;-4.46;74.93;98344.15;103477;1313;111595;-76
2021/12/09 04:39:57;;;;;;;40.00;18.40;;;;;;;-4.44;74.98;98345.48;103489;1313;98465;-77
2021/12/09 04:42:25;;;;;;;42.00;20.00;;;;;;;-4.40;75.07;98339.35;103392;1317;107803;-78
2021/12/09 04:44:55;;;;;;;40.30;17.30;;;;;;;-4.38;75.01;98337.73;103177;1317;97117;-77
2021/12/09 04:47:23;;;;;;;39.80;18.00;;;;;;;-4.37;75.09;98336.48;103246;1313;98081;-74
2021/12/09 04:49:51;;;;;;;44.30;19.80;;;;;;;-4.37;75.04;98340.65;103225;1314;112174;-74
2021/12/09 04:52:18;;;;;;;38.90;17.60;;;;;;;-4.36;75.10;98346.52;103491;1313;97956;-74
2021/12/09 04:54:46;;;;;;;41.80;19.50;;;;;;;-4.35;75.11;98342.32;103448;1314;107662;-76
2021/12/09 04:57:15;;;;;;;44.30;19.60;;;;;;;-4.32;75.11;98343.66;103329;1313;97859;-77
2021/12/09 04:59:45;;;;;;;43.30;19.90;;;;;;;-4.30;75.13;98346.90;103460;1313;98000;-75
2021/12/09 05:02:23;;;;;;;42.90;18.40;;;;;;;-4.29;75.08;98349.12;103356;1314;111607;-71
2021/12/09 05:04:55;;;;;;;40.80;18.40;;;;;;;-4.28;75.20;98352.73;103221;1316;95280;-72
2021/12/09 05:07:23;;;;;;;48.60;22.40;;;;;;;-4.28;75.20;98355.86;103334;1313;107909;-70
2021/12/09 05:09:52;;;;;;;41.60;19.50;;;;;;;-4.26;75.21;98361.85;103282;1313;98385;-73
2021/12/09 05:12:23;;;;;;;48.60;21.20;;;;;;;-4.23;75.18;98362.81;103310;1313;97940;-73
2021/12/09 05:14:52;;;;;;;46.70;20.90;;;;;;;-4.21;75.09;98355.34;103310;1314;111086;-70
2021/12/09 05:17:20;;;;;;;51.70;22.60;;;;;;;-4.19;75.09;98356.15;103309;1317;97950;-71
2021/12/09 05:19:50;;;;;;;52.00;23.60;;;;;;;-4.16;75.33;98358.51;103310;1313;107841;-70
2021/12/09 05:22:18;;;;;;;52.00;23.50;;;;;;;-4.14;75.18;98361.05;103287;1316;97952;-70
2021/12/09 05:24:50;;;;;;;52.70;24.20;;;;;;;-4.12;75.07;98369.66;103482;1313;97894;-70
2021/12/09 05:27:21;;;;;;;50.30;23.60;;;;;;;-4.10;75.18;98380.17;103452;1313;110132;-72
2021/12/09 05:30:13;;;;;;;54.00;25.20;;;;;;;-4.09;75.14;98389.34;103333;1314;97950;-72
2021/12/09 05:32:40;;;;;;;52.70;24.00;;;;;;;-4.06;75.17;98392.38;103280;1312;107924;-71
2021/12/09 05:35:08;;;;;;;55.30;24.00;;;;;;;-4.07;75.19;98394.82;103454;1317;95272;-72
2021/12/09 05:37:37;;;;;;;52.80;24.20;;;;;;;-4.07;75.12;98392.39;103429;1313;95992;-71
2021/12/09 05:40:06;;;;;;;53.80;24.40;;;;;;;-4.07;75.17;98389.63;103307;1313;111534;-70
2021/12/09 05:42:34;;;;;;;48.30;22.40;;;;;;;-4.07;75.04;98395.35;103355;1313;97137;-70
2021/12/09 05:45:04;;;;;;;54.00;24.60;;;;;;;-4.09;75.03;98396.25;103347;1313;106704;-74
2021/12/09 05:47:32;;;;;;;55.80;22.80;;;;;;;-4.10;75.28;98396.10;103209;1316;95330;-72
2021/12/09 05:50:11;;;;;;;54.60;23.50;;;;;;;-4.08;75.18;98404.20;103441;1318;96003;-72
2021/12/09 05:52:39;;;;;;;53.00;23.20;;;;;;;-4.08;75.09;98412.85;103405;1317;111563;-72
2021/12/09 05:55:12;;;;;;;52.80;23.50;;;;;;;-4.08;75.14;98410.27;103472;1316;99513;-71
2021/12/09 05:57:40;;;;;;;51.30;22.70;;;;;;;-4.06;75.28;98408.46;103469;1313;108021;-73
2021/12/09 06:00:09;;;;;;;52.70;24.40;;;;;;;-4.06;75.13;98407.61;103297;1319;98008;-72
2021/12/09 06:02:37;;;;;;;50.50;24.60;;;;;;;-4.05;75.22;98410.17;103287;1313;97999;-72
2021/12/09 06:05:07;;;;;;;53.60;24.60;;;;;;;-4.03;75.18;98409.61;103357;1313;111519;-72
2021/12/09 06:07:37;;;;;;;52.80;23.80;;;;;;;-4.01;75.18;98406.45;103347;1319;97889;-77
2021/12/09 06:10:05;;;;;;;69.90;32.00;;;;;;;-4.00;75.19;98405.91;103385;1318;108783;-69
2021/12/09 06:12:35;;;;;;;57.10;27.80;;;;;;;-3.97;75.47;98398.74;103199;1319;97844;-73
2021/12/09 06:15:06;;;;;;;52.90;23.30;;;;;;;-3.89;75.66;98399.59;103405;1314;95932;-74
2021/12/09 06:17:34;;;;;;;55.30;23.70;;;;;;;-3.82;75.74;98400.45;103327;1313;111553;-74
2021/12/09 06:20:05;;;;;;;51.90;23.90;;;;;;;-3.77;75.58;98408.30;103329;1317;95889;-74
2021/12/09 06:22:33;;;;;;;52.30;24.50;;;;;;;-3.72;75.41;98414.78;103270;1316;107816;-74
2021/12/09 06:25:01;;;;;;;56.40;26.80;;;;;;;-3.70;75.58;98410.55;103350;1314;97893;-74
2021/12/09 06:27:29;;;;;;;51.80;23.30;;;;;;;-3.68;75.39;98404.95;103377;1319;97882;-74
2021/12/09 06:29:57;;;;;;;51.30;23.20;;;;;;;-3.68;75.50;98390.39;103476;1319;111426;-74
2021/12/09 06:32:26;;;;;;;50.20;23.90;;;;;;;-3.67;75.27;98380.33;103142;1316;97944;-74
2021/12/09 06:34:54;;;;;;;46.40;20.60;;;;;;;-3.67;75.32;98376.66;104916;1314;107837;-75
2021/12/09 06:37:22;;;;;;;46.60;20.90;;;;;;;-3.68;75.29;98371.51;103828;1313;98669;-76
2021/12/09 06:39:50;;;;;;;52.20;21.90;;;;;;;-3.69;75.40;98366.70;103139;1319;97936;-74
2021/12/09 06:42:18;;;;;;;57.20;24.30;;;;;;;-3.71;75.25;98358.27;103684;1313;111523;-75
2021/12/09 06:44:46;;;;;;;52.50;22.50;;;;;;;-3.73;75.36;98352.04;104760;1315;97662;-75
2021/12/09 06:47:14;;;;;;;54.50;24.30;;;;;;;-3.74;75.20;98348.61;103309;1317;107869;-74
2021/12/09 06:49:43;;;;;;;54.40;25.30;;;;;;;-3.73;75.22;98338.90;103230;1316;97937;-74
2021/12/09 06:52:17;;;;;;;52.40;22.80;;;;;;;-3.74;75.21;98337.52;103317;1318;97030;-73
2021/12/09 06:54:47;;;;;;;46.50;20.20;;;;;;;-3.74;75.22;98339.08;103347;1314;112408;-74
2021/12/09 06:57:18;;;;;;;49.90;21.80;;;;;;;-3.74;75.16;98339.95;103294;1313;98030;-76
2021/12/09 06:59:47;;;;;;;46.00;19.90;;;;;;;-3.76;75.28;98335.66;103324;1318;107889;-75
2021/12/09 07:02:14;;;;;;;46.70;21.50;;;;;;;-3.75;75.38;98334.27;103380;1319;97892;-73
2021/12/09 07:04:45;;;;;;;45.80;19.40;;;;;;;-3.76;75.32;98335.15;103406;1319;97946;-74
2021/12/09 07:07:13;;;;;;;44.50;19.10;;;;;;;-3.77;75.52;98332.92;103358;1318;109671;-74
2021/12/09 07:09:46;;;;;;;39.70;16.10;;;;;;;-3.78;75.36;98327.39;103432;1319;97968;-76
2021/12/09 07:12:13;;;;;;;39.70;16.70;;;;;;;-3.78;75.48;98323.24;103329;1313;107330;-72
2021/12/09 07:14:44;;;;;;;36.90;16.10;;;;;;;-3.80;75.38;98317.41;103402;1319;97991;-72
2021/12/09 07:17:12;;;;;;;39.90;16.00;;;;;;;-3.83;75.40;98318.69;103300;1320;97868;-71
2021/12/09 07:19:40;;;;;;;36.70;16.50;;;;;;;-3.86;75.38;98321.03;103366;1319;111311;-74
2021/12/09 07:22:10;;;;;;;40.30;17.40;;;;;;;-3.87;75.33;98324.18;103388;1319;95873;-76
2021/12/09 07:24:41;;;;;;;37.40;15.50;;;;;;;-3.84;75.47;98334.84;103460;1319;107954;-72
2021/12/09 07:27:08;;;;;;;35.90;16.10;;;;;;;-3.84;75.34;98344.36;103355;1317;97798;-73
2021/12/09 07:29:39;;;;;;;35.40;16.90;;;;;;;-3.84;75.46;98352.69;103431;1318;97856;-74
2021/12/09 07:32:08;;;;;;;39.10;18.70;;;;;;;-3.85;75.30;98364.65;103407;1313;113019;-72
2021/12/09 07:34:39;;;;;;;43.30;18.70;;;;;;;-3.84;75.42;98369.30;103377;1316;95816;-73
2021/12/09 07:37:10;;;;;;;41.80;19.40;;;;;;;-3.83;75.47;98372.94;103453;1313;107806;-73
2021/12/09 07:39:38;;;;;;;39.50;18.30;;;;;;;-3.81;75.44;98376.69;103469;1319;95189;-73
2021/12/09 07:42:11;;;;;;;35.90;15.70;;;;;;;-3.79;75.50;98401.42;103500;1316;97959;-74
2021/12/09 07:44:41;;;;;;;36.00;16.50;;;;;;;-3.78;75.45;98401.91;103467;1319;111424;-74
2021/12/09 07:47:12;;;;;;;38.00;17.60;;;;;;;-3.75;75.65;98394.20;103455;1319;97891;-74
2021/12/09 07:49:40;;;;;;;37.60;16.40;;;;;;;-3.71;75.57;98403.64;103454;1318;107807;-73
2021/12/09 07:52:13;;;;;;;40.10;17.50;;;;;;;-3.70;75.66;98398.26;103484;1313;96653;-73
2021/12/09 07:54:44;;;;;;;39.10;18.80;;;;;;;-3.66;75.71;98411.83;103498;1313;95286;-72
2021/12/09 07:57:12;;;;;;;43.30;20.10;;;;;;;-3.62;75.62;98409.63;103473;1313;111470;-75
2021/12/09 07:59:43;;;;;;;42.70;19.90;;;;;;;-3.57;75.63;98404.14;103371;1319;97988;-73
2021/12/09 08:02:11;;;;;;;42.20;19.40;;;;;;;-3.55;75.75;98409.12;103343;1314;105366;-74
2021/12/09 08:04:43;;;;;;;38.90;17.90;;;;;;;-3.51;75.82;98408.68;103372;1319;95260;-72
2021/12/09 08:07:15;;;;;;;38.90;17.90;;;;;;;-3.47;75.64;98410.14;103406;1313;97888;-72
2021/12/09 08:09:49;;;;;;;;;;;;;;;-3.42;75.75;98418.33;103317;1316;111469;-72
2021/12/09 08:12:19;;;;;;;36.90;17.70;;;;;;;-3.40;75.88;98415.33;103358;1314;97998;-73
2021/12/09 08:14:47;;;;;;;39.40;17.80;;;;;;;-3.36;75.70;98412.96;103279;1320;107798;-73
2021/12/09 08:17:46;;;;;;;39.40;18.20;;;;;;;-3.32;75.70;98408.02;103352;1313;97848;-73
2021/12/09 08:20:18;;;;;;;36.30;16.00;;;;;;;-3.26;75.60;98412.20;103388;1313;98049;-74
2021/12/09 08:22:49;;;;;;;41.30;18.30;;;;;;;-3.22;75.95;98418.15;103382;1313;111504;-73
2021/12/09 08:25:16;;;;;;;38.10;17.30;;;;;;;-3.21;75.45;98427.83;103429;1317;98415;-73
2021/12/09 08:27:45;;;;;;;43.50;18.90;;;;;;;-3.23;75.49;98424.92;103397;1319;107827;-72
2021/12/09 08:30:22;;;;;;;38.00;16.70;;;;;;;-3.25;75.51;98407.98;103372;1314;97957;-73
2021/12/09 08:33:13;;;;;;;38.00;16.40;;;;;;;-3.22;75.53;98404.96;103406;1313;97064;-73
2021/12/09 08:35:40;;;;;;;38.00;17.10;;;;;;;-3.18;75.67;98397.38;103442;1319;111592;-72
2021/12/09 08:38:09;;;;;;;39.30;17.90;;;;;;;-3.14;75.61;98392.23;103415;1319;97743;-74
2021/12/09 08:40:42;;;;;;;37.80;17.10;;;;;;;-3.09;75.90;98399.08;103431;1313;106837;-73
2021/12/09 08:43:14;;;;;;;37.30;16.90;;;;;;;-3.05;75.79;98398.93;103474;1314;99255;-72
2021/12/09 08:45:43;;;;;;;39.60;18.20;;;;;;;-3.03;75.46;98398.17;103373;1313;96530;-73
2021/12/09 08:48:12;;;;;;;41.90;20.40;;;;;;;-2.98;75.87;98406.55;103381;1313;110425;-72
2021/12/09 08:50:44;;;;;;;39.50;18.80;;;;;;;-2.93;76.05;98397.23;103369;1319;98640;-74
2021/12/09 08:53:19;;;;;;;40.90;18.40;;;;;;;-2.89;75.71;98393.11;103362;1313;108005;-73
2021/12/09 08:55:49;;;;;;;34.30;15.70;;;;;;;-2.87;75.72;98385.24;103368;1318;98533;-74
2021/12/09 08:58:21;;;;;;;40.10;18.50;;;;;;;-2.85;75.52;98382.05;103395;1319;97998;-74
2021/12/09 09:00:54;;;;;;;39.20;16.70;;;;;;;-2.82;75.73;98391.19;103435;1317;111661;-73
2021/12/09 09:03:22;;;;;;;28.30;14.20;;;;;;;-2.83;75.58;98394.51;103473;1314;97972;-72
2021/12/09 09:05:55;;;;;;;38.50;18.00;;;;;;;-2.84;75.74;98393.48;103450;1318;107775;-73
2021/12/09 09:08:23;;;;;;;38.40;18.10;;;;;;;-2.81;75.60;98396.36;103436;1314;97872;-72
2021/12/09 09:10:51;;;;;;;36.40;16.30;;;;;;;-2.76;75.68;98392.74;103415;1319;98001;-73
2021/12/09 09:13:19;;;;;;;37.40;18.30;;;;;;;-2.72;75.65;98387.59;103366;1314;111664;-72
2021/12/09 09:15:48;;;;;;;36.50;17.70;;;;;;;-2.68;75.76;98384.35;103368;1317;97981;-73
2021/12/09 09:18:21;;;;;;;38.20;17.70;;;;;;;-2.63;76.00;98378.64;103378;1313;107821;-73
2021/12/09 09:20:49;;;;;;;36.40;17.00;;;;;;;-2.59;75.95;98380.77;103394;1319;95188;-73
2021/12/09 09:23:22;;;;;;;39.60;18.90;;;;;;;-2.55;75.80;98380.15;103398;1315;98009;-74
2021/12/09 09:25:54;;;;;;;;;;;;;;;-2.53;75.86;98368.27;103159;1319;109971;-72
2021/12/09 09:28:28;;;;;;;42.90;21.00;;;;;;;-2.51;75.70;98365.27;103402;1319;97877;-73
2021/12/09 09:31:00;;;;;;;45.60;22.70;;;;;;;-2.46;75.97;98366.15;103406;1319;107729;-71
2021/12/09 09:33:31;;;;;;;47.40;22.20;;;;;;;-2.38;75.79;98356.35;103140;1314;97813;-72
2021/12/09 09:36:00;;;;;;;52.60;24.50;;;;;;;-2.32;75.90;98352.70;103272;1313;97870;-73
2021/12/09 09:38:33;;;;;;;53.90;23.70;;;;;;;-2.26;75.86;98347.30;103353;1313;112571;-73
2021/12/09 09:41:10;;;;;;;52.90;26.00;;;;;;;-2.21;75.78;98348.68;103318;1320;95369;-73
2021/12/09 09:46:31;;;;;;;51.30;24.00;;;;;;;-2.16;75.78;98347.13;103109;1316;97830;-73
2021/12/09 09:49:03;;;;;;;48.40;23.10;;;;;;;-2.14;75.74;98335.26;103086;1316;97901;-74
2021/12/09 09:51:34;;;;;;;43.20;20.70;;;;;;;-2.21;75.66;98332.19;103035;1316;111570;-73
2021/12/09 09:54:05;;;;;;;50.00;23.20;;;;;;;-2.22;75.89;98330.67;103091;1323;96665;-73
2021/12/09 09:56:40;;;;;;;52.70;25.10;;;;;;;-2.23;75.66;98327.23;103074;1316;107481;-76
2021/12/09 09:59:17;;;;;;;51.90;22.30;;;;;;;-2.22;75.75;98328.42;103197;1319;97898;-73
2021/12/09 10:01:53;;;;;;;48.10;21.30;;;;;;;-2.32;75.63;98312.93;103196;1319;98582;-74
2021/12/09 10:07:07;;;;;;;45.80;20.50;;;;;;;-2.41;75.72;98299.50;103151;1319;96336;-73
2021/12/09 10:09:35;;;;;;;53.20;24.20;;;;;;;-2.45;75.77;98298.05;103193;1316;107488;-73
2021/12/09 10:12:06;;;;;;;44.80;23.20;;;;;;;-2.47;75.65;98299.52;103247;1317;98545;-73
2021/12/09 10:14:38;;;;;;;47.70;22.50;;;;;;;-2.43;75.90;98311.71;103207;1313;98005;-73
2021/12/09 10:17:14;;;;;;;47.30;23.50;;;;;;;-2.36;75.95;98310.64;103187;1320;112120;-74
2021/12/09 10:20:08;;;;;;;41.50;19.80;;;;;;;-2.28;75.97;98305.52;103160;1320;95179;-74
2021/12/09 10:22:39;;;;;;;42.20;19.10;;;;;;;-2.22;75.96;98300.10;103146;1319;107729;-74
2021/12/09 10:25:23;;;;;;;46.80;21.70;;;;;;;-2.17;75.75;98290.91;103189;1316;97912;-72
2021/12/09 10:28:00;;;;;;;41.40;19.40;;;;;;;-2.12;75.65;98289.88;103458;1320;97995;-73
2021/12/09 10:30:29;;;;;;;43.10;19.50;;;;;;;-2.06;75.93;98278.57;103396;1321;111551;-76
2021/12/09 10:33:03;;;;;;;40.80;19.90;;;;;;;-2.02;75.95;98273.02;103418;1319;95173;-73
2021/12/09 10:35:31;;;;;;;41.90;20.00;;;;;;;-2.02;75.54;98275.65;103391;1317;106655;-73
2021/12/09 10:38:05;;;;;;;41.90;19.60;;;;;;;-2.01;75.84;98276.12;103476;1318;97894;-72
2021/12/09 10:40:35;;;;;;;43.90;20.60;;;;;;;-2.00;75.66;98272.77;103445;1313;97861;-76
2021/12/09 10:43:05;;;;;;;41.70;21.80;;;;;;;-1.99;75.80;98269.98;103477;1313;111473;-73
2021/12/09 10:45:38;;;;;;;43.60;21.40;;;;;;;-2.00;76.00;98271.03;103268;1318;205212;-74
2021/12/09 10:48:24;;;;;;;46.60;23.70;;;;;;;-2.01;75.40;98272.65;103454;1313;107868;-73
2021/12/09 10:53:47;;;;;;;52.40;24.00;;;;;;;-2.05;75.88;98280.09;103400;1318;97876;-73
2021/12/09 10:56:29;;;;;;;51.20;24.80;;;;;;;-2.07;75.75;98286.58;103310;1314;111564;-73
2021/12/09 10:58:59;;;;;;;51.00;23.50;;;;;;;-2.09;75.63;98286.13;103352;1319;97965;-72
2021/12/09 11:01:27;;;;;;;50.60;23.60;;;;;;;-2.11;75.67;98280.61;103369;1313;107827;-73
2021/12/09 11:04:01;;;;;;;46.60;22.30;;;;;;;-2.10;75.54;98268.61;103402;1319;97935;-73
2021/12/09 11:06:37;;;;;;;44.40;21.90;;;;;;;-2.11;75.68;98255.27;103408;1319;97960;-73
2021/12/09 11:09:13;;;;;;;45.30;22.00;;;;;;;-2.11;75.83;98251.61;103127;1319;111534;-75
2021/12/09 11:11:47;;;;;;;49.50;23.00;;;;;;;-2.12;75.44;98250.27;103404;1317;95198;-73
2021/12/09 11:14:21;;;;;;;42.40;19.30;;;;;;;-2.07;75.83;98244.20;103394;1319;107776;-73
2021/12/09 11:17:05;;;;;;;44.30;21.20;;;;;;;-1.97;75.97;98243.15;103310;1320;95284;-73
2021/12/09 11:22:07;;;;;;;47.40;22.00;;;;;;;-1.98;75.60;98218.68;103390;1319;111540;-72
2021/12/09 11:24:43;;;;;;;55.60;23.60;;;;;;;-2.07;75.47;98212.56;103439;1319;98011;-72
2021/12/09 11:27:26;;;;;;;50.40;23.70;;;;;;;-2.09;75.88;98213.88;103365;1313;107756;-72
2021/12/09 11:30:12;;;;;;;49.20;23.20;;;;;;;-2.08;75.62;98212.27;103466;1319;97979;-72
2021/12/09 11:32:55;;;;;;;41.70;21.00;;;;;;;-2.10;75.53;98212.48;103401;1319;97979;-73
2021/12/09 11:35:27;;;;;;;46.50;21.70;;;;;;;-2.19;75.44;98217.80;103444;1318;111464;-72